< < Back
Terminal Aerodrome Forecast


Current Version              Previous Versions:   1  2  3  4  5  6  7  8  9  

Terminal Aerodrome Forecast

793
FTUS42 KFFC 250543
TAFCSG
TAF
KCSG 250543Z 2506/2606 00000KT P6SM SCT250
     FM251500 09004KT P6SM FEW040
     FM252000 12006KT P6SM SCT050
     FM260300 15003KT P6SM SCT250=

Latest METAR

192
SAUS70 KWBC 252100 RRA
MTRCSG
METAR KCSG 252051Z 00000KT 10SM FEW080 26/21 A2999 RMK AO2 PK WND
22026/1952 RAE09 TSB00E27 SLP150 P0023 60041 T02560211
58014


USA.gov is the U.S. government's official web portal to all federal, state and local government web resources and services.